Terminal Aerodrome Forecast
Issued by NWS

Home | Current Version | Previous Version | Text Only | Print | Product List | Glossary On
Versions: 1 2 3 4 5 6 7 8 9 10 11 12 13 14 15
892
FTUS44 KLIX 242344
TAFMSY
TAF
KMSY 242344Z 2500/2524 02004KT P6SM SCT090 SCT150
     FM250900 00000KT P6SM SCT150
     FM251200 VRB03KT P6SM SHRA VCTS BKN050CB=

USA.gov is the U.S. government's official web portal to all federal, state and local government web resources and services.